Time;durP1;ratioP1;P1;durP2;ratioP2;P2;SDS_P1;SDS_P2;PMS_P1;PMS_P2;Temp;Humidity;BMP_temperature;BMP_pressure;BME280_temperature;BME280_humidity;BME280_pressure;Samples;Min_cycle;Max_cycle;Signal;HPM_P1;HPM_P2
2021/12/04 00:03:33;;;;;;;5.20;2.20;;;23.60;46.80;;;;;;213557;1313;22652;-52
2021/12/04 00:08:37;;;;;;;5.60;2.20;;;23.50;47.40;;;;;;213621;1321;25677;-52
2021/12/04 00:13:42;;;;;;;9.60;2.90;;;23.50;47.20;;;;;;213431;1323;25388;-57
2021/12/04 00:18:46;;;;;;;6.10;2.20;;;23.60;47.30;;;;;;213506;1323;22650;-53
2021/12/04 00:23:51;;;;;;;5.80;2.50;;;23.70;46.50;;;;;;213575;1321;22558;-57
2021/12/04 00:28:54;;;;;;;7.00;2.80;;;23.70;46.80;;;;;;213441;1321;22634;-57
2021/12/04 00:34:02;;;;;;;4.90;2.40;;;23.90;45.90;;;;;;213457;1320;24363;-56
2021/12/04 00:50:06;;;;;;;5.40;2.10;;;24.00;45.50;;;;;;213183;1320;22815;-55
2021/12/04 00:55:13;;;;;;;6.60;2.20;;;23.90;45.50;;;;;;213655;1320;22590;-55
2021/12/04 01:00:20;;;;;;;3.40;2.00;;;23.90;45.60;;;;;;213606;1317;22587;-55
2021/12/04 01:05:25;;;;;;;5.30;2.20;;;23.90;45.60;;;;;;213699;1317;22593;-54
2021/12/04 01:10:29;;;;;;;4.20;2.20;;;23.90;45.50;;;;;;213463;1319;22653;-54
2021/12/04 01:15:34;;;;;;;3.70;2.20;;;23.90;45.40;;;;;;213474;1322;22577;-55
2021/12/04 01:20:40;;;;;;;5.90;2.30;;;23.90;45.30;;;;;;213472;1321;22599;-56
2021/12/04 01:25:47;;;;;;;5.80;2.50;;;24.00;45.30;;;;;;213475;1320;25448;-55
2021/12/04 01:30:56;;;;;;;3.60;2.00;;;23.90;45.50;;;;;;213369;1317;22561;-53
2021/12/04 01:36:00;;;;;;;5.40;2.30;;;23.90;45.20;;;;;;213323;1313;22651;-54
2021/12/04 01:41:04;;;;;;;4.00;2.20;;;23.90;45.10;;;;;;213468;1318;25713;-54
2021/12/04 01:46:09;;;;;;;5.00;2.20;;;23.90;45.10;;;;;;213585;1321;22868;-54
2021/12/04 01:51:13;;;;;;;5.00;2.50;;;23.90;45.50;;;;;;213478;1321;22593;-53
2021/12/04 01:56:17;;;;;;;4.40;2.00;;;23.90;45.00;;;;;;213453;1318;22563;-55
2021/12/04 02:01:21;;;;;;;7.40;2.10;;;24.00;45.00;;;;;;213307;1316;24758;-56
2021/12/04 02:06:25;;;;;;;5.80;2.20;;;24.10;44.80;;;;;;213477;1321;24255;-55
2021/12/04 02:11:29;;;;;;;4.20;2.50;;;24.10;44.70;;;;;;213325;1313;22652;-55
2021/12/04 02:16:33;;;;;;;3.90;2.20;;;24.10;44.70;;;;;;213450;1320;26672;-55
2021/12/04 02:21:40;;;;;;;4.70;2.30;;;24.00;45.00;;;;;;213511;1320;22733;-53
2021/12/04 02:26:45;;;;;;;4.40;1.90;;;24.00;44.90;;;;;;213415;1320;26810;-56
2021/12/04 02:31:57;;;;;;;4.10;2.00;;;24.00;44.70;;;;;;213490;1320;25271;-56
2021/12/04 02:37:02;;;;;;;5.10;2.20;;;24.00;44.70;;;;;;213374;1322;25374;-56
2021/12/04 02:42:06;;;;;;;5.50;2.30;;;24.00;45.00;;;;;;213395;1318;22590;-54
2021/12/04 02:47:10;;;;;;;3.50;2.00;;;24.00;44.70;;;;;;213472;1321;24287;-56
2021/12/04 02:52:14;;;;;;;2.90;2.00;;;24.00;44.60;;;;;;213392;1319;23126;-55
2021/12/04 02:57:20;;;;;;;3.70;2.20;;;23.90;44.60;;;;;;213399;1320;22576;-55
2021/12/04 03:02:25;;;;;;;3.50;2.00;;;24.00;44.60;;;;;;213556;1320;22571;-54
2021/12/04 03:07:29;;;;;;;4.30;2.00;;;23.90;44.60;;;;;;213491;1320;24404;-56
2021/12/04 03:12:32;;;;;;;3.80;1.90;;;24.00;44.60;;;;;;213487;1315;24329;-56
2021/12/04 03:17:36;;;;;;;5.80;2.50;;;24.00;44.50;;;;;;213554;1318;22592;-55
2021/12/04 03:22:41;;;;;;;5.50;2.10;;;23.90;44.60;;;;;;213486;1320;25548;-54
2021/12/04 03:27:47;;;;;;;4.80;2.20;;;24.00;44.60;;;;;;213486;1320;22628;-55
2021/12/04 03:35:14;;;;;;;4.00;2.00;;;24.10;44.40;;;;;;213512;1320;22632;-55
2021/12/04 03:43:37;;;;;;;3.70;2.20;;;24.10;44.40;;;;;;213446;1320;22596;-56
2021/12/04 03:53:45;;;;;;;4.10;1.90;;;24.00;44.50;;;;;;213569;1320;22566;-55
2021/12/04 03:58:49;;;;;;;3.50;1.80;;;24.10;44.60;;;;;;213467;1320;26829;-57
2021/12/04 04:03:52;;;;;;;3.60;2.00;;;24.00;44.40;;;;;;213535;1320;24708;-54
2021/12/04 04:08:56;;;;;;;4.30;1.70;;;24.00;44.50;;;;;;213456;1319;22668;-56
2021/12/04 04:14:00;;;;;;;4.80;1.80;;;24.00;44.50;;;;;;213554;1320;24339;-55
2021/12/04 04:19:04;;;;;;;4.20;2.00;;;24.00;44.50;;;;;;213335;1313;23038;-53
2021/12/04 04:24:10;;;;;;;5.30;1.80;;;24.00;44.40;;;;;;213559;1320;22628;-54
2021/12/04 04:29:14;;;;;;;3.70;1.80;;;24.00;44.50;;;;;;213500;1320;24323;-52
2021/12/04 04:34:29;;;;;;;4.60;1.80;;;24.00;44.60;;;;;;213524;1319;24241;-57
2021/12/04 05:11:36;;;;;;;3.10;1.70;;;24.20;44.40;;;;;;213419;1314;23162;-54
2021/12/04 05:16:48;;;;;;;2.90;1.70;;;24.20;44.30;;;;;;213611;1320;22570;-54
2021/12/04 05:21:53;;;;;;;3.50;1.70;;;24.10;44.30;;;;;;213495;1319;25413;-54
2021/12/04 05:26:57;;;;;;;7.00;2.50;;;24.10;44.30;;;;;;213456;1312;25304;-54
2021/12/04 05:32:01;;;;;;;3.20;1.80;;;24.10;44.40;;;;;;213563;1320;25652;-55
2021/12/04 05:37:05;;;;;;;3.10;1.80;;;24.10;44.60;;;;;;213396;1320;22652;-55
2021/12/04 05:42:08;;;;;;;4.50;1.80;;;24.10;44.20;;;;;;213602;1321;24345;-55
2021/12/04 05:47:21;;;;;;;3.30;1.80;;;24.10;44.20;;;;;;213435;1320;24931;-55
2021/12/04 05:52:51;;;;;;;5.20;2.00;;;24.10;44.20;;;;;;213319;1321;25407;-54
2021/12/04 05:57:54;;;;;;;3.70;1.90;;;24.10;44.30;;;;;;213467;1320;22577;-55
2021/12/04 06:02:58;;;;;;;4.50;1.60;;;24.10;44.40;;;;;;213497;1319;25451;-57
2021/12/04 06:08:02;;;;;;;3.00;2.00;;;24.10;44.40;;;;;;213566;1317;25479;-52
2021/12/04 06:13:06;;;;;;;3.70;2.00;;;24.10;44.20;;;;;;213532;1320;25651;-54
2021/12/04 06:18:11;;;;;;;3.70;1.90;;;24.10;44.30;;;;;;213492;1317;25574;-57
2021/12/04 06:23:15;;;;;;;3.70;2.10;;;24.10;44.30;;;;;;213543;1320;26789;-56
2021/12/04 06:28:19;;;;;;;3.60;2.30;;;24.10;44.30;;;;;;213499;1320;24321;-53
2021/12/04 06:33:25;;;;;;;3.50;2.00;;;24.20;44.10;;;;;;213439;1312;22620;-56
2021/12/04 06:38:38;;;;;;;4.70;2.40;;;24.20;44.10;;;;;;213633;1313;24418;-53
2021/12/04 06:43:52;;;;;;;3.30;2.10;;;24.20;44.10;;;;;;213503;1313;22737;-55
2021/12/04 06:54:35;;;;;;;3.40;2.00;;;24.20;44.00;;;;;;213394;1312;23169;-55
2021/12/04 06:59:46;;;;;;;4.40;2.50;;;24.10;44.00;;;;;;213468;1320;22641;-56
2021/12/04 07:04:55;;;;;;;4.30;2.20;;;24.10;44.00;;;;;;213552;1320;23956;-56
2021/12/04 07:09:58;;;;;;;5.20;2.20;;;24.10;44.30;;;;;;213440;1319;25313;-55
2021/12/04 07:15:02;;;;;;;4.20;2.40;;;24.10;44.10;;;;;;213445;1320;25374;-55
2021/12/04 07:20:09;;;;;;;5.30;2.60;;;24.10;44.30;;;;;;213366;1317;276924;-56
2021/12/04 07:25:12;;;;;;;5.20;2.40;;;24.10;43.90;;;;;;213597;1320;26870;-54
2021/12/04 07:30:17;;;;;;;4.10;2.50;;;24.10;44.00;;;;;;213486;1320;25237;-54
2021/12/04 07:35:21;;;;;;;5.80;3.00;;;24.20;43.90;;;;;;213520;1313;24329;-56
2021/12/04 07:40:25;;;;;;;5.10;2.70;;;24.20;43.90;;;;;;213246;1312;22609;-53
2021/12/04 07:45:30;;;;;;;4.60;2.60;;;24.20;44.00;;;;;;213373;1312;22578;-54
2021/12/04 07:50:38;;;;;;;5.00;2.50;;;24.20;44.30;;;;;;213068;1313;24343;-56
2021/12/04 07:55:43;;;;;;;5.70;2.60;;;24.10;44.70;;;;;;213132;1313;24340;-55
2021/12/04 08:00:46;;;;;;;9.70;3.70;;;24.10;44.30;;;;;;213135;1313;23208;-56
2021/12/04 08:05:51;;;;;;;4.60;2.30;;;24.20;44.20;;;;;;213327;1312;22572;-56
2021/12/04 08:10:56;;;;;;;5.00;2.70;;;24.10;44.40;;;;;;213095;1312;22591;-55
2021/12/04 08:16:04;;;;;;;4.20;2.80;;;23.90;44.60;;;;;;213150;1312;26918;-56
2021/12/04 08:21:11;;;;;;;6.00;3.20;;;23.80;45.20;;;;;;213203;1312;22986;-54
2021/12/04 08:26:16;;;;;;;4.90;2.70;;;23.70;45.00;;;;;;213333;1312;22599;-54
2021/12/04 08:31:24;;;;;;;4.70;2.50;;;23.60;45.20;;;;;;213130;1312;22594;-56
2021/12/04 08:36:32;;;;;;;4.70;2.70;;;23.50;45.30;;;;;;213311;1312;22852;-53
2021/12/04 08:41:36;;;;;;;4.70;2.70;;;23.40;45.70;;;;;;213084;1313;24339;-53
2021/12/04 08:46:40;;;;;;;8.40;2.90;;;23.30;45.60;;;;;;213094;1315;22563;-55
2021/12/04 08:51:49;;;;;;;6.00;2.90;;;23.20;46.00;;;;;;213125;1312;22743;-56
2021/12/04 08:56:57;;;;;;;4.90;2.80;;;23.00;46.40;;;;;;213168;1314;22932;-53
2021/12/04 09:02:03;;;;;;;10.90;3.60;;;23.00;47.20;;;;;;213181;1312;23006;-55
2021/12/04 09:07:08;;;;;;;11.30;3.00;;;22.90;48.10;;;;;;213272;1312;24346;-56
2021/12/04 09:12:14;;;;;;;11.30;3.30;;;22.80;48.30;;;;;;213408;1315;22726;-52
2021/12/04 09:17:20;;;;;;;8.90;2.80;;;22.80;48.50;;;;;;213370;1312;24130;-56
2021/12/04 09:22:30;;;;;;;7.50;2.90;;;22.70;49.30;;;;;;213167;1312;22796;-55
2021/12/04 10:16:43;;;;;;;8.20;2.50;;;22.50;51.10;;;;;;213381;1312;25426;-54
2021/12/04 10:32:55;;;;;;;15.80;3.20;;;23.30;49.20;;;;;;213562;1320;22585;-56
2021/12/04 10:38:06;;;;;;;14.10;3.80;;;23.30;48.80;;;;;;213561;1320;26550;-57
2021/12/04 10:43:24;;;;;;;22.00;4.00;;;23.20;48.20;;;;;;213510;1316;26662;-52
2021/12/04 10:48:32;;;;;;;18.20;3.80;;;23.30;49.90;;;;;;213253;1315;25422;-58
2021/12/04 10:53:47;;;;;;;25.10;5.00;;;23.50;50.00;;;;;;213486;1317;22981;-55
2021/12/04 11:04:54;;;;;;;15.60;5.20;;;23.70;48.30;;;;;;213462;1312;22596;-55
2021/12/04 11:37:21;;;;;;;21.30;4.50;;;23.40;48.20;;;;;;213519;1312;22572;-56
2021/12/04 11:47:44;;;;;;;17.40;5.40;;;23.20;48.30;;;;;;213280;1315;22784;-52
2021/12/04 11:52:54;;;;;;;18.20;5.20;;;23.10;49.30;;;;;;213415;1319;24579;-56
2021/12/04 11:57:59;;;;;;;12.30;4.80;;;23.00;48.40;;;;;;213206;1319;25078;-55
2021/12/04 12:03:13;;;;;;;14.50;5.30;;;22.70;48.20;;;;;;213360;1319;24255;-56
2021/12/04 12:08:27;;;;;;;16.80;4.50;;;22.60;48.20;;;;;;213239;1312;26590;-55
2021/12/04 12:13:37;;;;;;;11.80;5.00;;;22.50;48.30;;;;;;213282;1315;24475;-57
2021/12/04 12:18:54;;;;;;;13.80;5.00;;;22.50;48.50;;;;;;213356;1315;22600;-56
2021/12/04 12:40:09;;;;;;;16.20;5.20;;;22.30;47.90;;;;;;213200;1318;22579;-54
2021/12/04 12:45:16;;;;;;;10.60;4.60;;;22.30;47.40;;;;;;213714;1319;24335;-53
2021/12/04 12:50:41;;;;;;;11.50;5.00;;;22.20;47.00;;;;;;213626;1319;25642;-54
2021/12/04 12:55:48;;;;;;;13.80;5.80;;;22.20;46.90;;;;;;213540;1319;22758;-52
2021/12/04 13:12:18;;;;;;;14.20;5.40;;;22.60;45.30;;;;;;213580;1320;24465;-55
2021/12/04 13:17:26;;;;;;;9.60;4.60;;;22.80;44.60;;;;;;213312;1319;22959;-55
2021/12/04 13:22:31;;;;;;;11.60;5.40;;;23.00;44.20;;;;;;213577;1312;22644;-53
2021/12/04 13:32:43;;;;;;;12.00;5.70;;;23.20;42.70;;;;;;213425;1318;22628;-54
2021/12/04 13:38:00;;;;;;;10.40;5.30;;;23.20;42.50;;;;;;213302;1315;25071;-53
2021/12/04 13:43:18;;;;;;;15.40;5.00;;;23.30;42.50;;;;;;213342;1315;22570;-53
2021/12/04 13:48:27;;;;;;;14.20;5.30;;;23.30;42.90;;;;;;213393;1315;25831;-54
2021/12/04 13:53:37;;;;;;;10.70;5.50;;;23.30;43.30;;;;;;213614;1320;25636;-56
2021/12/04 13:58:54;;;;;;;10.30;5.30;;;23.30;43.00;;;;;;213498;1316;25517;-54
2021/12/04 14:04:00;;;;;;;9.30;5.10;;;23.40;45.00;;;;;;213422;1317;22747;-53
2021/12/04 14:09:07;;;;;;;12.30;5.80;;;23.50;45.40;;;;;;213640;1318;24251;-54
2021/12/04 14:14:20;;;;;;;14.90;5.70;;;23.30;46.80;;;;;;213441;1321;22675;-53
2021/12/04 14:19:26;;;;;;;8.30;5.10;;;23.30;47.20;;;;;;213497;1320;22587;-54
2021/12/04 14:24:53;;;;;;;15.00;6.00;;;23.20;46.60;;;;;;213725;1312;24431;-57
2021/12/04 14:29:59;;;;;;;8.70;5.50;;;23.10;46.50;;;;;;213773;1320;24301;-57
2021/12/04 14:35:15;;;;;;;9.50;5.40;;;23.20;46.80;;;;;;213583;1319;26292;-56
2021/12/04 14:40:24;;;;;;;15.80;6.40;;;23.30;46.80;;;;;;213515;1312;22615;-55
2021/12/04 14:45:36;;;;;;;12.60;7.20;;;23.30;47.60;;;;;;213416;1321;24403;-56
2021/12/04 14:50:42;;;;;;;28.90;12.50;;;23.30;48.50;;;;;;213492;1312;22592;-55
2021/12/04 14:55:51;;;;;;;17.50;9.20;;;23.30;50.20;;;;;;213550;1319;22588;-56
2021/12/04 15:01:05;;;;;;;21.40;8.50;;;23.50;52.30;;;;;;213605;1320;24276;-54
2021/12/04 15:06:14;;;;;;;18.90;8.90;;;23.50;52.30;;;;;;213541;1313;22593;-55
2021/12/04 15:11:21;;;;;;;18.70;9.00;;;23.60;53.00;;;;;;213464;1318;24267;-53
2021/12/04 15:16:35;;;;;;;16.10;9.40;;;23.50;53.30;;;;;;213287;1313;24277;-57
2021/12/04 15:21:55;;;;;;;15.80;8.30;;;23.50;53.60;;;;;;209569;1312;5579418;-56
2021/12/04 15:27:06;;;;;;;18.70;8.70;;;23.60;54.30;;;;;;214965;1320;25225;-55
2021/12/04 15:32:22;;;;;;;19.00;8.70;;;23.50;54.60;;;;;;213417;1315;26726;-55
2021/12/04 15:38:00;;;;;;;17.40;9.50;;;23.50;55.00;;;;;;213599;1313;22584;-56
2021/12/04 15:49:49;;;;;;;14.00;7.10;;;23.10;55.70;;;;;;213105;1318;22589;-54
2021/12/04 15:55:45;;;;;;;;;;;;;;;;;;;;;
2021/12/04 16:01:09;;;;;;;18.50;8.00;;;23.10;55.70;;;;;;213451;1313;24416;-56
2021/12/04 16:06:43;;;;;;;17.00;8.10;;;22.90;55.40;;;;;;213245;1313;24309;-56
2021/12/04 16:12:36;;;;;;;16.50;7.50;;;22.80;55.60;;;;;;213037;1313;24254;-56
2021/12/04 16:18:16;;;;;;;12.40;7.40;;;22.70;55.80;;;;;;213295;1313;25404;-55
2021/12/04 16:23:58;;;;;;;14.80;7.50;;;22.60;55.10;;;;;;213421;1313;24887;-54
2021/12/04 16:29:22;;;;;;;16.40;7.20;;;22.50;54.60;;;;;;213288;1317;25287;-54
2021/12/04 16:41:21;;;;;;;14.50;8.00;;;22.30;54.80;;;;;;211676;1318;22727;-53
2021/12/04 16:46:38;;;;;;;19.70;8.20;;;22.30;55.00;;;;;;212613;1318;24338;-53
2021/12/04 16:58:21;;;;;;;17.70;8.40;;;22.60;54.50;;;;;;213265;1321;25448;-57
2021/12/04 17:03:53;;;;;;;22.30;8.90;;;22.60;53.90;;;;;;213444;1320;22674;-56
2021/12/04 17:09:33;;;;;;;18.80;9.60;;;22.50;53.80;;;;;;213442;1314;22574;-55
2021/12/04 17:15:16;;;;;;;17.70;9.00;;;22.40;53.50;;;;;;213473;1313;22650;-56
2021/12/04 17:20:38;;;;;;;17.90;8.80;;;22.30;53.20;;;;;;213462;1313;24220;-57
2021/12/04 17:26:21;;;;;;;23.50;9.40;;;22.20;53.50;;;;;;213464;1319;22599;-56
2021/12/04 17:32:13;;;;;;;20.60;8.70;;;22.10;53.90;;;;;;213911;1317;25612;-56
2021/12/04 17:38:04;;;;;;;25.60;10.10;;;22.10;53.10;;;;;;213597;1321;24284;-56
2021/12/04 17:43:43;;;;;;;21.50;9.50;;;22.00;52.90;;;;;;213595;1312;24254;-56
2021/12/04 17:49:35;;;;;;;23.20;9.60;;;22.00;52.80;;;;;;213389;1315;25343;-57
2021/12/04 17:55:21;;;;;;;21.90;9.70;;;22.00;52.80;;;;;;213215;1313;22722;-54
2021/12/04 18:01:19;;;;;;;24.40;9.90;;;22.00;52.90;;;;;;213381;1315;22606;-55
2021/12/04 18:07:13;;;;;;;19.50;10.40;;;21.90;53.60;;;;;;213389;1312;27289;-56
2021/12/04 18:12:44;;;;;;;22.70;10.40;;;22.40;53.00;;;;;;213530;1313;22602;-56
2021/12/04 18:18:54;;;;;;;23.00;10.60;;;22.80;53.30;;;;;;213499;1312;22609;-57
2021/12/04 18:24:50;;;;;;;20.90;10.30;;;22.80;53.60;;;;;;213445;1318;24448;-56
2021/12/04 18:30:44;;;;;;;23.40;10.90;;;23.00;52.70;;;;;;213442;1319;25464;-57
2021/12/04 18:36:22;;;;;;;20.70;11.10;;;23.00;52.60;;;;;;213907;1322;22746;-55
2021/12/04 18:42:29;;;;;;;;;;;;;;;;;;;;;
2021/12/04 18:48:16;;;;;;;18.30;10.30;;;23.10;52.40;;;;;;213918;1319;23030;-55
2021/12/04 18:53:52;;;;;;;22.50;11.60;;;23.10;52.20;;;;;;213755;1312;24292;-56
2021/12/04 18:59:57;;;;;;;18.10;9.80;;;23.20;52.10;;;;;;213510;1315;24250;-54
2021/12/04 19:05:49;;;;;;;26.40;12.30;;;23.20;51.50;;;;;;213708;1313;25528;-53
2021/12/04 19:11:27;;;;;;;;;;;;;;;;;;;;;
2021/12/04 19:17:04;;;;;;;24.90;10.50;;;23.70;51.00;;;;;;213481;1312;22639;-56
2021/12/04 19:22:25;;;;;;;26.50;10.90;;;23.60;51.10;;;;;;213376;1313;22804;-53
2021/12/04 19:27:53;;;;;;;22.20;11.10;;;23.50;51.80;;;;;;213346;1312;26537;-53
2021/12/04 19:50:50;;;;;;;19.80;9.80;;;22.60;53.90;;;;;;213506;1313;22706;-56
2021/12/04 19:56:45;;;;;;;17.60;9.80;;;22.50;54.50;;;;;;213324;1313;24336;-55
2021/12/04 20:14:51;;;;;;;;;;;;;;;;;;;;;
2021/12/04 20:20:47;;;;;;;18.20;8.90;;;22.30;54.00;;;;;;213294;1318;24305;-55
2021/12/04 20:26:04;;;;;;;22.50;8.70;;;22.30;54.00;;;;;;212962;1312;22807;-55
2021/12/04 20:32:06;;;;;;;19.00;9.50;;;22.20;54.10;;;;;;213332;1312;25318;-52
2021/12/04 21:08:18;;;;;;;21.70;9.10;;;21.90;54.50;;;;;;213817;1320;22652;-56
2021/12/04 21:27:30;;;;;;;19.40;9.00;;;21.90;54.10;;;;;;213449;1313;22585;-54
2021/12/04 21:50:12;;;;;;;17.90;7.80;;;23.30;51.50;;;;;;213449;1312;24231;-55
2021/12/04 22:19:09;;;;;;;15.70;7.90;;;23.60;50.30;;;;;;213365;1313;22780;-52
2021/12/04 22:59:17;;;;;;;13.90;7.80;;;23.70;49.30;;;;;;212889;1318;24735;-55
2021/12/04 23:04:43;;;;;;;14.20;7.00;;;23.70;49.10;;;;;;213015;1320;22581;-54
2021/12/04 23:16:03;;;;;;;11.30;6.90;;;23.90;48.80;;;;;;213465;1315;24337;-53
2021/12/04 23:34:36;;;;;;;12.10;6.90;;;23.90;48.60;;;;;;213450;1318;22797;-54
